Time;durP1;ratioP1;P1;durP2;ratioP2;P2;SDS_P1;SDS_P2;PMS_P1;PMS_P2;Temp;Humidity;BMP_temperature;BMP_pressure;BME280_temperature;BME280_humidity;BME280_pressure;Samples;Min_cycle;Max_cycle;Signal;HPM_P1;HPM_P2
2021/09/15 00:00:04;;;;;;;6.68;3.67;;;;;;;18.34;79.35;99928.31;5114660;28;20027;-77
2021/09/15 00:02:30;;;;;;;5.35;4.30;;;;;;;18.33;79.81;99926.69;5094255;28;20039;-76
2021/09/15 00:04:55;;;;;;;5.80;3.90;;;;;;;18.28;79.84;99924.16;5091751;28;20020;-77
2021/09/15 00:07:21;;;;;;;7.30;4.38;;;;;;;18.28;80.48;99927.78;5094280;28;20032;-77
2021/09/15 00:09:46;;;;;;;8.38;4.63;;;;;;;18.25;80.32;99922.88;5087127;28;20386;-76
2021/09/15 00:12:12;;;;;;;6.85;4.20;;;;;;;18.25;80.73;99922.06;5134078;27;20027;-76
2021/09/15 00:14:37;;;;;;;7.70;4.18;;;;;;;18.23;80.76;99918.78;5116219;28;20080;-76
2021/09/15 00:17:03;;;;;;;7.35;4.50;;;;;;;18.23;80.72;99921.59;5099633;28;20480;-76
2021/09/15 00:19:28;;;;;;;7.68;4.10;;;;;;;18.21;80.63;99915.50;5121229;28;20043;-76
2021/09/15 00:21:54;;;;;;;7.20;4.22;;;;;;;18.20;80.78;99913.88;5121516;28;20105;-76
2021/09/15 00:24:19;;;;;;;7.25;4.60;;;;;;;18.20;80.64;99913.88;5109750;28;20028;-76
2021/09/15 00:26:45;;;;;;;8.32;4.40;;;;;;;18.16;80.42;99908.16;5074920;28;20145;-76
2021/09/15 00:29:10;;;;;;;6.65;3.90;;;;;;;18.17;80.50;99909.81;5086197;28;20029;-76
2021/09/15 00:31:38;;;;;;;7.05;3.75;;;;;;;18.16;81.03;99912.97;5098325;28;20073;-77
2021/09/15 00:34:06;;;;;;;6.30;4.20;;;;;;;18.15;80.56;99903.72;5075383;28;20162;-77
2021/09/15 00:36:52;;;;;;;8.15;3.97;;;;;;;18.14;80.63;99899.28;5094670;28;20036;-77
2021/09/15 00:39:24;;;;;;;5.88;3.60;;;;;;;18.14;80.85;99902.09;5083423;28;20469;-77
2021/09/15 00:41:57;;;;;;;7.40;4.40;;;;;;;18.12;81.56;99898.81;5069369;28;20055;-77
2021/09/15 00:44:23;;;;;;;6.03;4.68;;;;;;;18.06;81.02;99898.25;5047306;28;20040;-77
2021/09/15 00:46:51;;;;;;;10.02;6.30;;;;;;;18.08;83.98;99901.53;5086646;28;20383;-78
2021/09/15 00:49:17;;;;;;;8.90;5.57;;;;;;;18.08;83.25;99892.31;5051092;28;20063;-77
2021/09/15 00:51:43;;;;;;;6.38;5.20;;;;;;;18.08;84.49;99890.31;5064762;28;20101;-78
2021/09/15 00:54:16;;;;;;;8.10;5.82;;;;;;;18.07;85.05;99888.66;5116368;27;20388;-78
2021/09/15 00:56:42;;;;;;;6.93;5.07;;;;;;;18.11;84.01;99885.13;5078840;28;20035;-78
2021/09/15 00:59:07;;;;;;;8.57;5.38;;;;;;;18.13;84.75;99889.19;5079001;28;20472;-77
2021/09/15 01:01:33;;;;;;;5.93;4.70;;;;;;;18.16;84.11;99884.84;5062772;28;20036;-77
2021/09/15 01:03:59;;;;;;;5.95;5.30;;;;;;;18.16;85.77;99882.03;5066251;28;20051;-78
2021/09/15 01:06:28;;;;;;;5.90;5.25;;;;;;;18.20;85.21;99886.59;5074714;28;20536;-78
2021/09/15 01:08:57;;;;;;;7.75;5.82;;;;;;;18.21;86.32;99882.59;5085110;28;20044;-78
2021/09/15 01:11:23;;;;;;;5.38;4.72;;;;;;;18.23;84.93;99885.88;5080096;28;20032;-78
2021/09/15 01:14:03;;;;;;;7.30;6.45;;;;;;;18.26;85.87;99892.78;5041966;28;20094;-78
2021/09/15 01:16:55;;;;;;;6.65;5.95;;;;;;;18.26;86.38;99885.16;5043634;28;20028;-78
2021/09/15 01:19:24;;;;;;;6.90;5.75;;;;;;;18.26;86.62;99887.16;5059953;28;20029;-77
2021/09/15 01:21:50;;;;;;;6.13;5.45;;;;;;;18.30;86.67;99886.06;5058044;28;20085;-77
2021/09/15 01:24:16;;;;;;;6.22;5.32;;;;;;;18.30;86.85;99888.03;5067396;28;20578;-77
2021/09/15 01:26:42;;;;;;;6.15;5.40;;;;;;;18.29;86.82;99890.03;5062732;28;20410;-77
2021/09/15 01:29:13;;;;;;;11.57;5.93;;;;;;;18.30;87.56;99886.06;5085754;28;20056;-77
2021/09/15 01:31:38;;;;;;;6.13;5.43;;;;;;;18.33;87.42;99890.16;5091311;28;20025;-78
2021/09/15 01:34:09;;;;;;;4.95;4.38;;;;;;;18.35;87.00;99875.72;5079285;28;20456;-77
2021/09/15 01:36:35;;;;;;;4.80;3.78;;;;;;;18.36;85.28;99881.00;5072577;28;20483;-78
2021/09/15 01:39:01;;;;;;;5.50;4.05;;;;;;;18.38;85.47;99881.44;5081314;28;20033;-78
2021/09/15 01:41:26;;;;;;;3.85;3.55;;;;;;;18.38;84.75;99884.25;5086571;28;20029;-77
2021/09/15 01:43:56;;;;;;;4.50;3.70;;;;;;;18.40;85.30;99883.91;5051902;28;20021;-78
2021/09/15 01:46:22;;;;;;;8.18;4.45;;;;;;;18.41;86.35;99883.50;5068632;28;20083;-77
2021/09/15 01:48:47;;;;;;;4.53;4.13;;;;;;;18.42;86.90;99899.22;5074044;28;20029;-78
2021/09/15 01:51:15;;;;;;;4.20;3.80;;;;;;;18.43;86.11;99906.47;5075392;28;20040;-78
2021/09/15 01:53:43;;;;;;;4.03;3.63;;;;;;;18.42;85.42;99899.22;5103162;28;20033;-78
2021/09/15 01:56:08;;;;;;;4.57;4.18;;;;;;;18.46;86.00;99900.13;5056497;28;20092;-76
2021/09/15 01:58:34;;;;;;;6.05;4.20;;;;;;;18.47;86.96;99906.56;5085957;28;20039;-77
2021/09/15 02:00:59;;;;;;;3.58;3.28;;;;;;;18.45;85.62;99901.31;5075454;28;20024;-77
2021/09/15 02:03:25;;;;;;;4.20;3.80;;;;;;;18.49;85.74;99895.78;5056277;28;20029;-77
2021/09/15 02:05:50;;;;;;;3.83;3.53;;;;;;;18.46;84.97;99894.50;5056657;28;20111;-77
2021/09/15 02:08:16;;;;;;;5.93;4.10;;;;;;;18.47;86.66;99900.94;5044989;28;20024;-77
2021/09/15 02:10:43;;;;;;;5.25;3.42;;;;;;;18.46;85.48;99897.31;5066088;28;20028;-77
2021/09/15 02:13:09;;;;;;;5.40;4.90;;;;;;;18.49;86.60;99898.59;5069958;28;20036;-78
2021/09/15 02:15:34;;;;;;;4.93;4.45;;;;;;;18.48;86.79;99896.97;5108962;27;20391;-77
2021/09/15 02:18:00;;;;;;;4.22;3.83;;;;;;;18.48;86.80;99903.41;5084786;28;20035;-77
2021/09/15 02:20:25;;;;;;;4.10;3.45;;;;;;;18.46;86.15;99911.38;5084989;28;20058;-77
2021/09/15 02:22:51;;;;;;;3.95;3.63;;;;;;;18.47;86.45;99910.22;5075507;28;20543;-77
2021/09/15 02:25:17;;;;;;;4.95;4.45;;;;;;;18.48;87.31;99913.81;5079215;28;20038;-77
2021/09/15 02:27:42;;;;;;;6.88;5.60;;;;;;;18.45;89.33;99915.38;5061260;28;20078;-77
2021/09/15 02:30:08;;;;;;;5.47;4.97;;;;;;;18.44;88.25;99916.56;5085205;28;20035;-77
2021/09/15 02:32:34;;;;;;;5.00;4.50;;;;;;;18.46;87.74;99917.00;5077034;28;20653;-77
2021/09/15 02:34:59;;;;;;;5.30;4.60;;;;;;;18.49;87.92;99916.25;5059363;28;20032;-77
2021/09/15 02:37:25;;;;;;;5.90;4.45;;;;;;;18.48;87.33;99925.06;5079133;28;20032;-77
2021/09/15 02:39:53;;;;;;;4.60;3.63;;;;;;;18.47;86.81;99924.25;5048740;28;20031;-78
2021/09/15 02:42:26;;;;;;;6.05;4.63;;;;;;;18.50;87.52;99923.53;5034062;28;20035;-78
2021/09/15 02:44:54;;;;;;;7.10;5.75;;;;;;;18.48;89.70;99925.88;5044349;28;20028;-77
2021/09/15 02:47:44;;;;;;;5.97;5.10;;;;;;;18.47;88.75;99934.66;5083185;28;20053;-78
2021/09/15 02:50:09;;;;;;;5.80;5.15;;;;;;;18.46;87.40;99931.03;5040262;28;20048;-77
2021/09/15 02:52:45;;;;;;;6.00;4.93;;;;;;;18.50;87.91;99933.97;5048624;28;20028;-78
2021/09/15 02:55:13;;;;;;;5.22;4.70;;;;;;;18.51;89.25;99938.41;5058498;28;20099;-77
2021/09/15 02:57:41;;;;;;;7.57;5.95;;;;;;;18.48;89.14;99934.31;5053478;28;20046;-76
2021/09/15 03:00:07;;;;;;;7.65;5.43;;;;;;;18.50;88.48;99939.59;5086455;28;20397;-77
2021/09/15 03:02:32;;;;;;;7.32;6.65;;;;;;;18.43;88.86;99934.59;5070700;28;20092;-77
2021/09/15 03:05:01;;;;;;;6.05;5.45;;;;;;;18.43;89.14;99940.22;5063537;28;20032;-77
2021/09/15 03:07:27;;;;;;;6.13;5.60;;;;;;;18.47;89.66;99941.13;5084548;28;20032;-77
2021/09/15 03:09:52;;;;;;;6.88;6.18;;;;;;;18.45;90.11;99943.47;5095087;28;20032;-77
2021/09/15 03:12:18;;;;;;;5.95;5.35;;;;;;;18.46;88.69;99956.34;5061044;28;20431;-77
2021/09/15 03:14:54;;;;;;;6.35;5.75;;;;;;;18.45;88.82;99957.53;5064868;28;20122;-78
2021/09/15 03:17:19;;;;;;;6.32;5.35;;;;;;;18.36;90.49;99953.25;5048061;28;20446;-77
2021/09/15 03:19:45;;;;;;;4.70;4.30;;;;;;;18.37;88.89;99954.91;5068230;28;20085;-77
2021/09/15 03:22:11;;;;;;;4.45;4.05;;;;;;;18.37;88.40;99960.53;5086652;28;20031;-77
2021/09/15 03:24:36;;;;;;;6.40;5.53;;;;;;;18.37;89.01;99952.91;5079026;28;20024;-77
2021/09/15 03:27:04;;;;;;;7.20;4.70;;;;;;;18.35;88.18;99963.69;5096360;28;20031;-78
2021/09/15 03:29:33;;;;;;;5.38;4.88;;;;;;;18.36;88.31;99965.34;5039845;28;20089;-77
2021/09/15 03:31:59;;;;;;;5.03;3.92;;;;;;;18.35;88.10;99972.13;5083652;28;20028;-77
2021/09/15 03:34:25;;;;;;;5.85;4.95;;;;;;;18.37;88.70;99975.38;5058265;28;20050;-77
2021/09/15 03:36:51;;;;;;;7.20;6.07;;;;;;;18.34;88.84;99969.69;5084005;28;20483;-78
2021/09/15 03:39:16;;;;;;;9.00;6.18;;;;;;;18.31;89.16;99971.22;5078776;28;20056;-78
2021/09/15 03:41:42;;;;;;;6.85;4.53;;;;;;;18.33;87.85;99974.50;5051550;28;20035;-78
2021/09/15 03:44:08;;;;;;;5.60;4.72;;;;;;;18.35;88.03;99979.72;5073699;28;20077;-78
2021/09/15 03:46:33;;;;;;;4.25;3.75;;;;;;;18.34;88.34;99980.91;5077216;28;20411;-78
2021/09/15 03:48:59;;;;;;;6.53;5.50;;;;;;;18.37;87.93;99986.63;5093159;28;20514;-78
2021/09/15 03:51:24;;;;;;;5.55;4.82;;;;;;;18.38;87.43;99991.06;5065142;28;20031;-78
2021/09/15 03:53:50;;;;;;;8.05;5.57;;;;;;;18.37;87.95;99994.25;5059540;28;20024;-78
2021/09/15 03:56:15;;;;;;;5.90;5.22;;;;;;;18.38;87.94;99993.06;5044369;28;20043;-77
2021/09/15 03:58:41;;;;;;;5.25;4.45;;;;;;;18.39;87.73;99998.34;5060689;28;20093;-78
2021/09/15 04:01:07;;;;;;;5.85;4.30;;;;;;;18.40;87.68;100001.97;5043780;28;20039;-78
2021/09/15 04:03:32;;;;;;;5.15;4.32;;;;;;;18.42;87.29;100010.88;5062017;28;20032;-77
2021/09/15 04:05:58;;;;;;;6.53;5.55;;;;;;;18.38;87.24;100013.56;5070813;28;20057;-77
2021/09/15 04:08:24;;;;;;;9.68;6.07;;;;;;;18.39;88.61;100017.22;5097943;28;20028;-78
2021/09/15 04:10:49;;;;;;;6.03;4.68;;;;;;;18.38;87.73;100016.38;5094990;28;20040;-78
2021/09/15 04:13:15;;;;;;;4.53;3.80;;;;;;;18.40;87.67;100007.59;5060316;28;20036;-77
2021/09/15 04:15:40;;;;;;;6.28;5.15;;;;;;;18.37;87.12;100009.13;5049248;28;20028;-77
2021/09/15 04:18:06;;;;;;;7.70;5.28;;;;;;;18.37;87.41;100008.31;5092745;28;20024;-77
2021/09/15 04:20:31;;;;;;;6.72;4.93;;;;;;;18.38;87.35;100010.75;5096491;28;20039;-78
2021/09/15 04:22:57;;;;;;;7.32;6.22;;;;;;;18.36;87.69;100012.28;5109833;27;20032;-77
2021/09/15 04:33:35;;;;;;;7.55;4.97;;;;;;;18.29;87.99;100021.34;5096512;28;20526;-77
2021/09/15 04:36:03;;;;;;;8.05;6.10;;;;;;;18.31;88.62;100013.38;5061780;28;20024;-78
2021/09/15 04:38:29;;;;;;;7.63;5.55;;;;;;;18.30;87.57;100020.16;5092059;28;20032;-78
2021/09/15 04:40:54;;;;;;;7.45;5.72;;;;;;;18.30;88.04;100015.38;5044392;28;20035;-78
2021/09/15 04:43:20;;;;;;;7.68;6.68;;;;;;;18.31;88.65;100028.25;5083482;28;20104;-78
2021/09/15 04:45:45;;;;;;;8.52;7.50;;;;;;;18.32;88.46;100023.44;5065617;28;20515;-78
2021/09/15 04:48:11;;;;;;;9.27;6.95;;;;;;;18.30;88.15;100025.78;5082275;28;20036;-76
2021/09/15 04:50:36;;;;;;;8.52;6.05;;;;;;;18.28;87.90;100028.97;5073350;28;20033;-76
2021/09/15 04:53:02;;;;;;;6.47;5.40;;;;;;;18.26;87.83;100022.88;5088237;28;20036;-76
2021/09/15 04:55:29;;;;;;;5.95;4.95;;;;;;;18.25;88.28;100017.63;5078534;28;20036;-76
2021/09/15 04:57:55;;;;;;;7.82;6.53;;;;;;;18.24;89.56;100028.03;5087223;28;20476;-77
2021/09/15 05:00:20;;;;;;;9.40;7.63;;;;;;;18.24;91.21;100028.03;5107982;27;20112;-77
2021/09/15 05:02:46;;;;;;;9.88;8.38;;;;;;;18.21;91.15;100039.16;5043245;28;20032;-76
2021/09/15 05:05:11;;;;;;;12.15;9.70;;;;;;;18.21;91.84;100039.16;5084073;28;20024;-76
2021/09/15 05:07:37;;;;;;;9.90;8.13;;;;;;;18.18;89.75;100043.50;5051074;28;20032;-77
2021/09/15 05:10:03;;;;;;;9.43;7.05;;;;;;;18.19;89.70;100041.50;5084913;28;20475;-77
2021/09/15 05:12:28;;;;;;;8.20;6.82;;;;;;;18.19;89.85;100042.34;5100640;28;20035;-77
2021/09/15 05:14:54;;;;;;;9.88;7.80;;;;;;;18.21;89.57;100047.59;5049487;28;20040;-77
2021/09/15 05:17:20;;;;;;;10.02;7.90;;;;;;;18.16;90.36;100043.03;5053728;28;20048;-76
2021/09/15 05:19:45;;;;;;;7.75;6.45;;;;;;;18.20;90.12;100049.59;5080701;28;20028;-76
2021/09/15 05:22:11;;;;;;;10.73;7.55;;;;;;;18.24;90.60;100050.50;5116512;27;20077;-77
2021/09/15 05:24:36;;;;;;;10.48;7.07;;;;;;;18.23;89.58;100048.88;5079859;28;20035;-77
2021/09/15 05:27:02;;;;;;;9.00;7.22;;;;;;;18.25;90.38;100052.16;5086613;28;20488;-78
2021/09/15 05:29:28;;;;;;;9.98;7.55;;;;;;;18.27;90.75;100054.59;5068687;28;20535;-77
2021/09/15 05:31:53;;;;;;;9.45;7.68;;;;;;;18.26;90.03;100055.78;5097070;28;20032;-77
2021/09/15 05:34:19;;;;;;;9.02;6.72;;;;;;;18.25;89.28;100060.59;5059808;28;20042;-77
2021/09/15 05:36:44;;;;;;;13.02;8.50;;;;;;;18.23;89.75;100065.75;5104254;28;20069;-77
2021/09/15 05:39:09;;;;;;;17.45;11.93;;;;;;;18.20;92.74;100060.03;5075308;28;20047;-76
2021/09/15 05:41:35;;;;;;;13.90;10.32;;;;;;;18.18;91.45;100057.56;5089746;28;20036;-76
2021/09/15 05:44:01;;;;;;;12.32;9.48;;;;;;;18.16;90.97;100059.91;5108291;28;20028;-77
2021/09/15 05:46:29;;;;;;;11.95;8.10;;;;;;;18.19;90.68;100061.19;5102469;28;21793;-76
2021/09/15 05:48:54;;;;;;;11.43;8.23;;;;;;;18.21;90.84;100064.47;5085701;28;20020;-76
2021/09/15 05:51:20;;;;;;;14.48;8.65;;;;;;;18.22;90.54;100068.91;5093689;28;20527;-76
2021/09/15 05:53:45;;;;;;;15.00;9.15;;;;;;;18.23;91.72;100059.31;5106976;28;20384;-76
2021/09/15 05:56:11;;;;;;;10.90;8.60;;;;;;;18.24;90.64;100066.56;5103227;28;20036;-76
2021/09/15 05:58:36;;;;;;;14.18;10.60;;;;;;;18.27;92.54;100063.03;5074049;28;20036;-77
2021/09/15 06:01:01;;;;;;;13.35;10.05;;;;;;;18.25;93.22;100068.22;5078260;28;20032;-76
2021/09/15 06:03:27;;;;;;;12.82;9.93;;;;;;;18.27;92.24;100060.22;5066144;28;20484;-76
2021/09/15 06:05:53;;;;;;;16.15;11.93;;;;;;;18.27;93.94;100065.84;5087924;28;20038;-77
2021/09/15 06:08:18;;;;;;;16.38;12.35;;;;;;;18.27;93.80;100071.47;5064864;28;20049;-76
2021/09/15 06:10:44;;;;;;;15.50;10.13;;;;;;;18.29;93.95;100067.13;5083036;28;20043;-76
2021/09/15 06:13:09;;;;;;;13.52;9.23;;;;;;;18.30;91.75;100065.13;5093873;28;20032;-77
2021/09/15 06:15:34;;;;;;;12.15;9.90;;;;;;;18.32;92.40;100068.41;5108987;28;20081;-77
2021/09/15 06:18:00;;;;;;;12.73;10.05;;;;;;;18.33;92.52;100056.00;5084685;28;20039;-76
2021/09/15 06:20:25;;;;;;;9.85;8.18;;;;;;;18.37;90.78;100059.72;5063632;28;20081;-76
2021/09/15 06:22:51;;;;;;;12.52;8.48;;;;;;;18.39;90.73;100065.00;5080626;28;20024;-75
2021/09/15 06:25:16;;;;;;;10.27;8.65;;;;;;;18.40;90.51;100070.25;5098814;28;20028;-83
2021/09/15 06:27:42;;;;;;;11.75;9.32;;;;;;;18.38;91.14;100069.78;5089514;28;20058;-84
2021/09/15 06:30:08;;;;;;;21.73;14.20;;;;;;;18.36;95.48;100074.97;5050621;28;20040;-82
2021/09/15 06:32:34;;;;;;;23.10;15.85;;;;;;;18.32;97.52;100079.66;5100253;28;20032;-82
2021/09/15 06:34:59;;;;;;;18.80;15.80;;;;;;;18.31;97.28;100075.22;5083933;28;20058;-84
2021/09/15 06:37:25;;;;;;;18.65;14.85;;;;;;;18.36;97.98;100083.41;5043378;28;20729;-83
2021/09/15 06:39:50;;;;;;;21.15;14.90;;;;;;;18.34;98.35;100094.19;5052549;28;20036;-83
2021/09/15 06:42:16;;;;;;;20.33;15.90;;;;;;;18.32;98.27;100090.91;5041602;28;20383;-83
2021/09/15 06:44:42;;;;;;;22.23;16.95;;;;;;;18.33;99.62;100105.75;5074840;28;20020;-83
2021/09/15 06:47:08;;;;;;;20.52;15.57;;;;;;;18.25;99.81;100107.56;5071768;28;20040;-84
2021/09/15 06:49:33;;;;;;;19.70;15.45;;;;;;;18.28;98.85;100096.41;5071735;28;20109;-84
2021/09/15 06:51:59;;;;;;;19.23;14.05;;;;;;;18.26;97.96;100100.75;5079660;28;20024;-83
2021/09/15 06:54:24;;;;;;;22.27;15.27;;;;;;;18.25;99.37;100107.56;5073518;28;20028;-83
2021/09/15 06:56:50;;;;;;;17.73;12.55;;;;;;;18.23;98.30;100105.09;5082363;28;20392;-83
2021/09/15 06:59:15;;;;;;;19.20;13.60;;;;;;;18.23;98.53;100110.72;5086364;28;20498;-84
2021/09/15 07:01:41;;;;;;;20.52;15.48;;;;;;;18.24;99.39;100106.72;5067677;28;20039;-84
2021/09/15 07:04:06;;;;;;;17.70;13.32;;;;;;;18.22;98.55;100102.63;5081879;28;20035;-84
2021/09/15 07:06:32;;;;;;;23.67;16.20;;;;;;;18.19;100.00;100112.63;5077794;28;20028;-80
2021/09/15 07:08:57;;;;;;;15.88;11.48;;;;;;;18.21;98.10;100115.06;5119442;27;20089;-83
2021/09/15 07:11:23;;;;;;;17.65;13.52;;;;;;;18.22;98.52;100119.50;5070468;28;20372;-85
2021/09/15 07:13:48;;;;;;;18.05;12.45;;;;;;;18.25;97.15;100125.25;5057272;28;20539;-84
2021/09/15 07:16:14;;;;;;;15.15;11.50;;;;;;;18.23;97.37;100130.38;5069698;28;20033;-83
2021/09/15 07:18:39;;;;;;;19.15;13.43;;;;;;;18.26;98.75;100131.69;5065941;28;20035;-84
2021/09/15 07:21:05;;;;;;;21.27;14.20;;;;;;;18.22;98.53;100139.16;5069004;28;20047;-83
2021/09/15 07:23:30;;;;;;;39.45;24.08;;;;;;;18.17;100.00;100157.13;5071352;28;20027;-82
2021/09/15 07:25:56;;;;;;;38.33;23.55;;;;;;;18.15;100.00;100162.25;5025450;28;20111;-83
2021/09/15 07:28:22;;;;;;;34.03;21.27;;;;;;;18.15;100.00;100158.63;5063702;28;20024;-84
2021/09/15 07:30:47;;;;;;;44.50;26.13;;;;;;;18.13;100.00;100163.78;5043544;28;20036;-84
2021/09/15 07:33:14;;;;;;;31.33;19.48;;;;;;;18.14;98.35;100155.00;5071120;28;20032;-84
2021/09/15 07:35:40;;;;;;;28.70;19.38;;;;;;;18.16;97.85;100163.06;5052501;28;20031;-85
2021/09/15 07:38:05;;;;;;;38.10;22.67;;;;;;;18.17;98.86;100159.09;5083644;28;20035;-85
2021/09/15 07:40:31;;;;;;;35.90;22.45;;;;;;;18.14;99.46;100166.25;5084704;28;20027;-85
2021/09/15 07:42:57;;;;;;;38.55;21.98;;;;;;;18.16;99.05;100163.88;5062967;28;20468;-86
2021/09/15 07:45:22;;;;;;;40.25;23.48;;;;;;;18.11;99.88;100168.94;5104766;28;20387;-84
2021/09/15 07:47:48;;;;;;;32.55;19.73;;;;;;;18.12;98.36;100171.41;5063624;28;20526;-85
2021/09/15 07:50:13;;;;;;;36.67;20.48;;;;;;;18.11;98.98;100174.56;5100108;28;20030;-85
2021/09/15 07:52:39;;;;;;;29.98;18.73;;;;;;;18.11;97.54;100168.94;5072564;28;20055;-84
2021/09/15 07:55:05;;;;;;;32.38;18.73;;;;;;;18.08;99.60;100174.09;5056213;28;20055;-85
2021/09/15 07:57:31;;;;;;;32.47;18.83;;;;;;;18.13;98.12;100172.22;5073572;28;20066;-85
2021/09/15 07:59:56;;;;;;;35.13;20.40;;;;;;;18.09;98.93;100172.94;5046362;28;20446;-84
2021/09/15 08:02:22;;;;;;;31.13;18.08;;;;;;;18.08;97.47;100165.69;5032522;28;20123;-84
2021/09/15 08:04:48;;;;;;;30.42;18.17;;;;;;;18.12;97.91;100176.22;5074180;28;20076;-83
2021/09/15 08:07:13;;;;;;;37.63;21.60;;;;;;;18.09;98.58;100178.53;5056362;28;20062;-84
2021/09/15 08:09:39;;;;;;;35.22;21.40;;;;;;;18.09;98.70;100181.34;5050159;28;20031;-84
2021/09/15 08:12:05;;;;;;;36.25;20.38;;;;;;;18.11;98.06;100181.00;5064065;28;20123;-84
2021/09/15 08:14:31;;;;;;;37.97;21.75;;;;;;;18.09;98.12;100201.03;5059556;28;20043;-84
2021/09/15 08:16:56;;;;;;;43.67;25.40;;;;;;;18.07;99.71;100192.13;5059817;28;20078;-83
2021/09/15 08:19:23;;;;;;;42.00;24.15;;;;;;;18.08;99.03;100190.97;5067628;28;20047;-83
2021/09/15 08:21:48;;;;;;;45.10;26.05;;;;;;;18.05;99.52;100188.88;5074958;28;20056;-83
2021/09/15 08:24:14;;;;;;;40.65;23.58;;;;;;;18.04;98.92;100187.22;5078687;28;20029;-83
2021/09/15 08:26:40;;;;;;;38.13;23.92;;;;;;;18.03;99.64;100190.38;5043740;28;20021;-83
2021/09/15 08:29:05;;;;;;;33.88;20.65;;;;;;;18.06;98.16;100201.72;5076843;28;20392;-84
2021/09/15 08:31:31;;;;;;;30.95;20.02;;;;;;;18.04;98.16;100204.06;5085920;28;20506;-84
2021/09/15 08:33:56;;;;;;;30.10;19.02;;;;;;;18.05;98.66;100200.09;5076270;28;20028;-84
2021/09/15 08:36:22;;;;;;;31.85;20.20;;;;;;;18.02;100.00;100212.03;5020709;28;20032;-84
2021/09/15 08:38:47;;;;;;;24.05;16.23;;;;;;;18.01;98.72;100218.81;5058439;28;20036;-83
2021/09/15 08:41:14;;;;;;;27.65;17.42;;;;;;;18.00;98.53;100214.38;5052434;28;20039;-82
2021/09/15 08:43:40;;;;;;;25.75;17.27;;;;;;;17.97;99.98;100220.72;5069057;28;20021;-82
2021/09/15 08:46:05;;;;;;;18.88;13.52;;;;;;;18.00;97.67;100228.44;5073075;28;20439;-83
2021/09/15 08:48:38;;;;;;;22.42;15.07;;;;;;;17.99;99.00;100223.97;5067855;28;20028;-83
2021/09/15 08:51:03;;;;;;;19.42;14.38;;;;;;;18.00;99.39;100222.81;5040849;28;20043;-83
2021/09/15 08:53:28;;;;;;;21.90;14.85;;;;;;;17.94;100.00;100227.03;5086095;28;20032;-83
2021/09/15 08:55:54;;;;;;;23.48;15.57;;;;;;;17.93;100.00;100219.75;5057767;28;20070;-83
2021/09/15 08:58:19;;;;;;;24.17;15.65;;;;;;;17.92;100.00;100229.38;5043360;28;20032;-74
2021/09/15 09:00:46;;;;;;;20.30;14.07;;;;;;;17.91;100.00;100227.72;5075007;28;20028;-72
2021/09/15 09:03:11;;;;;;;24.52;15.30;;;;;;;17.88;100.00;100228.41;5076879;28;20648;-75
2021/09/15 09:05:37;;;;;;;24.65;15.52;;;;;;;17.89;100.00;100232.06;5075695;28;20051;-74
2021/09/15 09:08:03;;;;;;;30.65;17.42;;;;;;;17.90;100.00;100234.50;5073900;28;20384;-75
2021/09/15 09:10:33;;;;;;;29.55;17.02;;;;;;;17.91;100.00;100232.50;5074850;28;20032;-74
2021/09/15 09:12:58;;;;;;;25.58;15.68;;;;;;;17.94;100.00;100232.66;5084167;28;20481;-75
2021/09/15 09:15:26;;;;;;;29.95;17.02;;;;;;;17.97;100.00;100228.28;5078721;28;20064;-75
2021/09/15 09:17:52;;;;;;;22.88;13.48;;;;;;;18.03;100.00;100230.53;5081838;28;20042;-75
2021/09/15 09:20:21;;;;;;;35.47;19.27;;;;;;;18.05;100.00;100233.81;5076870;28;20029;-75
2021/09/15 09:23:00;;;;;;;40.10;21.15;;;;;;;18.06;100.00;100231.81;5071402;28;20029;-74
2021/09/15 09:25:26;;;;;;;31.17;18.02;;;;;;;18.16;100.00;100233.34;5082691;28;20029;-74
2021/09/15 09:27:52;;;;;;;31.85;17.70;;;;;;;18.22;100.00;100237.53;5118468;27;20055;-74
2021/09/15 09:30:34;;;;;;;35.92;20.13;;;;;;;18.25;100.00;100239.66;5073859;28;20032;-74
2021/09/15 09:33:01;;;;;;;37.05;20.25;;;;;;;18.32;100.00;100237.06;5077140;28;20032;-74
2021/09/15 09:35:39;;;;;;;28.75;16.77;;;;;;;18.41;100.00;100232.13;5072850;28;20048;-74
2021/09/15 09:38:41;;;;;;;36.90;19.13;;;;;;;18.51;100.00;100236.47;5083278;28;20577;-76
2021/09/15 09:41:12;;;;;;;36.00;19.30;;;;;;;18.60;100.00;100247.56;5062313;28;20068;-76
2021/09/15 09:43:42;;;;;;;29.48;17.75;;;;;;;18.67;100.00;100247.81;5060415;28;20031;-75
2021/09/15 09:46:10;;;;;;;31.35;18.70;;;;;;;18.75;100.00;100244.88;5073348;28;20029;-74
2021/09/15 09:48:45;;;;;;;33.00;19.73;;;;;;;18.84;100.00;100253.19;5042870;28;20106;-75
2021/09/15 09:51:31;;;;;;;32.92;18.00;;;;;;;18.91;100.00;100247.75;5071915;28;20029;-75
2021/09/15 09:54:17;;;;;;;32.88;18.63;;;;;;;18.95;99.15;100257.13;5089204;28;20374;-74
2021/09/15 09:56:43;;;;;;;37.28;21.02;;;;;;;19.03;99.61;100257.31;5074587;28;20021;-75
2021/09/15 09:59:09;;;;;;;24.17;15.43;;;;;;;19.12;96.49;100256.00;5082971;28;20484;-74
2021/09/15 10:01:45;;;;;;;34.88;20.98;;;;;;;19.20;97.62;100263.47;5078280;28;20093;-74
2021/09/15 10:04:11;;;;;;;36.83;21.92;;;;;;;19.23;97.43;100267.56;5072410;28;20029;-74
2021/09/15 10:06:37;;;;;;;31.95;19.58;;;;;;;19.33;96.39;100255.78;5076481;28;20041;-74
2021/09/15 10:09:03;;;;;;;34.60;23.13;;;;;;;19.38;96.62;100260.34;5108960;28;20036;-74
2021/09/15 10:11:29;;;;;;;30.42;19.58;;;;;;;19.45;94.98;100265.38;5049300;28;20071;-75
2021/09/15 10:13:55;;;;;;;35.17;21.60;;;;;;;19.47;95.57;100261.00;5072251;28;20056;-74
2021/09/15 10:16:21;;;;;;;36.67;21.95;;;;;;;19.50;94.99;100265.09;5074833;28;20108;-74
2021/09/15 10:19:01;;;;;;;33.60;21.73;;;;;;;19.52;94.26;100268.38;5110426;28;20032;-74
2021/09/15 10:21:30;;;;;;;34.55;21.92;;;;;;;19.51;94.17;100261.09;5079794;28;20043;-74
2021/09/15 10:23:56;;;;;;;34.55;22.15;;;;;;;19.52;94.34;100260.72;5072059;28;20028;-74
2021/09/15 10:26:37;;;;;;;34.20;22.17;;;;;;;19.57;94.10;100263.28;5100188;27;20489;-75
2021/09/15 10:29:24;;;;;;;36.67;23.23;;;;;;;19.54;93.66;100268.84;5066613;28;20029;-74
2021/09/15 10:31:53;;;;;;;30.55;19.70;;;;;;;19.62;92.92;100270.66;5092150;28;20039;-74
2021/09/15 10:34:37;;;;;;;36.05;21.95;;;;;;;19.59;93.70;100265.75;5102997;28;20044;-74
2021/09/15 10:37:04;;;;;;;34.55;23.25;;;;;;;19.63;93.25;100263.84;5057144;28;20032;-74
2021/09/15 10:39:29;;;;;;;36.03;22.17;;;;;;;19.62;93.25;100276.31;5040842;28;20036;-74
2021/09/15 10:41:55;;;;;;;31.20;21.30;;;;;;;19.66;92.88;100271.59;5078180;28;20035;-74
2021/09/15 10:44:21;;;;;;;35.15;22.17;;;;;;;19.65;92.83;100275.56;5078690;28;20013;-75
2021/09/15 10:46:47;;;;;;;32.13;21.05;;;;;;;19.70;93.03;100285.81;5073606;28;20032;-74
2021/09/15 10:49:15;;;;;;;28.15;19.52;;;;;;;19.71;93.01;100281.78;5074482;28;20036;-74
2021/09/15 10:51:40;;;;;;;27.05;18.95;;;;;;;19.77;92.64;100277.53;5094579;28;20024;-73
2021/09/15 10:54:42;;;;;;;26.73;18.88;;;;;;;19.82;92.22;100286.53;5075953;28;20047;-75
2021/09/15 10:57:17;;;;;;;26.20;18.00;;;;;;;19.82;91.40;100285.72;5084737;28;20039;-73
2021/09/15 10:59:50;;;;;;;23.52;16.98;;;;;;;19.88;91.24;100287.06;5063176;28;20062;-75
2021/09/15 11:02:25;;;;;;;;;;;;;;;19.91;91.13;100279.91;5059015;28;20029;-75
2021/09/15 11:04:51;;;;;;;27.20;17.00;;;;;;;19.97;91.04;100286.91;5056313;28;19913;-75
2021/09/15 11:07:47;;;;;;;31.48;20.75;;;;;;;19.95;90.71;100289.28;5081198;28;20033;-75
2021/09/15 11:10:34;;;;;;;28.92;20.00;;;;;;;19.92;90.47;100292.78;5084468;28;20040;-75
2021/09/15 11:13:10;;;;;;;27.30;18.52;;;;;;;19.93;90.21;100286.00;5071131;28;20039;-75
2021/09/15 11:15:37;;;;;;;25.80;17.15;;;;;;;19.96;90.17;100294.53;5085553;28;20032;-75
2021/09/15 11:18:03;;;;;;;59.53;22.17;;;;;;;19.98;90.20;100294.19;5077278;28;20032;-74
2021/09/15 11:20:30;;;;;;;35.58;18.92;;;;;;;19.96;90.40;100296.53;5059435;28;20044;-76
2021/09/15 11:22:56;;;;;;;33.13;17.70;;;;;;;19.97;89.89;100295.34;5073102;28;20108;-75
2021/09/15 11:25:23;;;;;;;39.55;20.75;;;;;;;19.98;90.21;100305.47;5056156;28;20064;-75
2021/09/15 11:28:14;;;;;;;40.58;23.45;;;;;;;19.93;90.48;100302.91;5056857;28;20409;-75